Portada
METAR-TAF:

METAR-TAF

Aeroports :

Provincetown Municipal Airport

Provincetown, Massachusetts, Estats Units d'Amèrica

latitud: 42-04N, longitud: 070-13W, altitud: 2 m

Observació

L'informe es va fer fa 26 minuts, a les 02:56 UTC
Vent 6 kt del Sud-Est
Temperatura 17°C
Humitat 100%
Pressió 1015 hPa
Visibilitat: 12.9 km
Cel cobert a una alçada de 300 ft

METAR: KPVC 050256Z AUTO 14006KT 8SM OVC003 17/17 A2996 RMK AO2 SLP143 6//// T01720167 52003 PNO $

Hora: 23:22 (03:22 UTC)


TAF: manca

Observacions i pronòstics meteorològics de més de 4000 aeroports (METAR i TAF).

Les estacions disponibles són els punts grocs i vermells al mapa.

Posi el ratolí al punt desitjat per veure el nom de l'estació.

Feu clic per veure les observacions i els pronòstics meteorològics.

Per canviar el mapa: feu clic els botons verds amb una creu de color negre per apropar; al botó verd amb un guió per allunyar la imatge; o en les fletxes verdes per a mapes adjacents.


METAR-TAF: